createdAt,value
2024-04-21T00:01:20.825Z,0.82
2024-04-21T00:03:47.858Z,0.80
2024-04-21T00:06:14.673Z,1.10
2024-04-21T00:08:41.337Z,0.90
2024-04-21T00:11:08.026Z,0.90
2024-04-21T00:13:34.997Z,0.80
2024-04-21T00:16:01.813Z,1.00
2024-04-21T00:18:28.557Z,1.00
2024-04-21T00:20:55.319Z,0.80
2024-04-21T00:23:22.026Z,0.80
2024-04-21T00:25:58.665Z,1.27
2024-04-21T00:28:25.779Z,0.70
2024-04-21T00:30:52.503Z,1.45
2024-04-21T00:33:19.293Z,0.88
2024-04-21T00:35:46.416Z,1.25
2024-04-21T00:38:13.134Z,1.10
2024-04-21T00:40:39.770Z,1.05
2024-04-21T00:43:06.520Z,0.82
2024-04-21T00:45:37.525Z,0.80
2024-04-21T00:48:06.353Z,0.90
2024-04-21T00:50:33.918Z,1.00
2024-04-21T00:53:01.358Z,0.80
2024-04-21T00:55:29.838Z,0.95
2024-04-21T00:57:56.929Z,0.85
2024-04-21T01:00:24.452Z,0.70
2024-04-21T01:02:51.699Z,0.70
2024-04-21T01:05:18.429Z,0.88
2024-04-21T01:07:45.161Z,0.90
2024-04-21T01:10:11.988Z,0.80
2024-04-21T01:12:42.880Z,1.00
2024-04-21T01:15:10.507Z,0.70
2024-04-21T01:17:38.512Z,1.00
2024-04-21T01:20:05.753Z,0.73
2024-04-21T01:22:32.469Z,1.00
2024-04-21T01:24:59.174Z,1.05
2024-04-21T01:27:25.882Z,1.08
2024-04-21T01:29:52.577Z,0.90
2024-04-21T01:32:22.808Z,0.80
2024-04-21T01:34:49.874Z,1.00
2024-04-21T01:37:19.568Z,0.93
2024-04-21T01:39:46.335Z,0.90
2024-04-21T01:42:13.252Z,0.75
2024-04-21T01:44:39.907Z,1.00
2024-04-21T01:47:06.690Z,0.95
2024-04-21T01:49:33.359Z,1.00
2024-04-21T01:52:00.242Z,0.90
2024-04-21T01:54:26.972Z,0.98
2024-04-21T01:56:53.613Z,1.00
2024-04-21T01:59:20.286Z,0.90
2024-04-21T02:01:47.063Z,0.90
2024-04-21T02:04:13.850Z,0.90
2024-04-21T02:06:41.650Z,0.73
2024-04-21T02:09:08.316Z,0.93
2024-04-21T02:11:35.082Z,0.80
2024-04-21T02:14:01.877Z,1.00
2024-04-21T02:16:28.546Z,0.93
2024-04-21T02:18:55.332Z,0.95
2024-04-21T02:21:22.125Z,1.02
2024-04-21T02:23:48.963Z,0.82
2024-04-21T02:26:15.767Z,1.10
2024-04-21T02:28:43.552Z,1.00
2024-04-21T02:31:10.459Z,0.90
2024-04-21T02:33:38.157Z,0.85
2024-04-21T02:36:05.400Z,0.80
2024-04-21T02:38:32.339Z,0.80
2024-04-21T02:40:59.582Z,0.80
2024-04-21T02:43:26.328Z,0.90
2024-04-21T02:45:53.075Z,0.60
2024-04-21T02:48:19.791Z,0.88
2024-04-21T02:50:47.075Z,0.80
2024-04-21T02:53:13.811Z,0.80
2024-04-21T02:55:44.440Z,1.02
2024-04-21T02:58:11.257Z,0.70
2024-04-21T03:00:39.099Z,1.20
2024-04-21T03:03:06.199Z,0.90
2024-04-21T03:05:33.175Z,0.95
2024-04-21T03:07:59.922Z,0.82
2024-04-21T03:10:26.622Z,0.75
2024-04-21T03:12:53.318Z,0.90
2024-04-21T03:15:20.009Z,1.00
2024-04-21T03:17:46.764Z,0.70
2024-04-21T03:20:13.447Z,1.00
2024-04-21T03:22:40.098Z,1.00
2024-04-21T03:25:07.049Z,1.00
2024-04-21T03:27:33.743Z,1.13
2024-04-21T03:30:00.511Z,0.85
2024-04-21T03:32:27.433Z,1.05
2024-04-21T03:34:57.305Z,0.80
2024-04-21T03:37:24.110Z,1.00
2024-04-21T03:39:51.005Z,0.95
2024-04-21T03:42:17.765Z,1.00
2024-04-21T03:44:44.496Z,1.02
2024-04-21T03:47:11.193Z,0.88
2024-04-21T03:49:37.938Z,1.15
2024-04-21T03:52:04.910Z,0.90
2024-04-21T03:54:31.613Z,1.00
2024-04-21T03:56:58.333Z,0.98
2024-04-21T03:59:24.996Z,1.13
2024-04-21T04:01:51.694Z,0.70
2024-04-21T04:04:18.620Z,0.90
2024-04-21T04:06:45.456Z,1.00
2024-04-21T04:09:12.158Z,1.08
2024-04-21T04:11:38.877Z,0.80
2024-04-21T04:14:05.631Z,1.00
2024-04-21T04:16:32.319Z,0.80
2024-04-21T04:18:59.185Z,1.00
2024-04-21T04:21:25.965Z,0.80
2024-04-21T04:23:52.630Z,1.05
2024-04-21T04:26:19.253Z,0.90
2024-04-21T04:28:45.879Z,1.00
2024-04-21T04:31:12.715Z,0.73
2024-04-21T04:33:39.550Z,0.93
2024-04-21T04:36:06.580Z,0.95
2024-04-21T04:38:33.267Z,0.80
2024-04-21T04:40:59.926Z,0.90
2024-04-21T04:43:26.681Z,0.80
2024-04-21T04:45:53.422Z,0.75
2024-04-21T04:48:20.173Z,0.70
2024-04-21T04:50:46.923Z,0.98
2024-04-21T04:53:13.597Z,0.77
2024-04-21T04:55:40.274Z,0.70
2024-04-21T04:58:06.981Z,0.82
2024-04-21T05:00:33.629Z,0.73
2024-04-21T05:03:00.384Z,0.85
2024-04-21T05:05:27.049Z,0.68
2024-04-21T05:07:53.738Z,0.68
2024-04-21T05:10:20.434Z,0.80
2024-04-21T05:12:47.487Z,0.80
2024-04-21T05:15:14.199Z,0.90
2024-04-21T05:17:40.938Z,0.93
2024-04-21T05:20:08.143Z,0.82
2024-04-21T05:22:34.767Z,1.02
2024-04-21T05:25:01.570Z,1.10
2024-04-21T05:27:29.492Z,1.00
2024-04-21T05:29:57.431Z,0.98
2024-04-21T05:32:24.202Z,1.42
2024-04-21T05:34:50.913Z,0.80
2024-04-21T05:37:17.667Z,1.05
2024-04-21T05:39:44.413Z,1.02
2024-04-21T05:42:11.048Z,1.00
2024-04-21T05:44:37.702Z,1.13
2024-04-21T05:47:04.612Z,1.10
2024-04-21T05:49:31.341Z,1.17
2024-04-21T05:51:58.030Z,1.05
2024-04-21T05:54:24.821Z,0.80
2024-04-21T05:56:51.455Z,1.20
2024-04-21T05:59:18.103Z,1.30
2024-04-21T06:01:44.798Z,1.20
2024-04-21T06:04:11.628Z,1.20
2024-04-21T06:06:38.339Z,1.10
2024-04-21T06:09:05.027Z,1.20
2024-04-21T06:11:31.824Z,1.10
2024-04-21T06:14:06.443Z,1.30
2024-04-21T06:18:59.819Z,1.20
2024-04-21T06:21:26.642Z,1.35
2024-04-21T06:23:53.381Z,1.30
2024-04-21T06:26:20.180Z,1.30
2024-04-21T06:28:46.853Z,1.20
2024-04-21T06:31:13.659Z,1.33
2024-04-21T06:33:40.428Z,1.40
2024-04-21T06:36:07.307Z,1.33
2024-04-21T06:38:33.997Z,1.50
2024-04-21T06:41:00.826Z,1.25
2024-04-21T06:43:27.562Z,1.20
2024-04-21T06:45:54.321Z,1.73
2024-04-21T06:48:21.129Z,1.73
2024-04-21T06:50:47.821Z,1.30
2024-04-21T06:53:14.448Z,1.40
2024-04-21T06:55:42.639Z,1.10
2024-04-21T06:58:09.338Z,1.30
2024-04-21T07:00:36.069Z,1.42
2024-04-21T07:03:04.863Z,1.52
2024-04-21T07:05:33.202Z,1.30
2024-04-21T07:07:59.889Z,1.20
2024-04-21T07:10:26.569Z,1.10
2024-04-21T07:12:53.407Z,1.10
2024-04-21T07:15:20.038Z,1.30
2024-04-21T07:17:46.746Z,1.08
2024-04-21T07:20:13.490Z,1.30
2024-04-21T07:22:40.179Z,1.20
2024-04-21T07:25:13.320Z,1.02
2024-04-21T07:27:46.132Z,1.02
2024-04-21T07:30:12.873Z,1.02
2024-04-21T07:32:39.632Z,1.15
2024-04-21T07:35:07.499Z,1.10
2024-04-21T07:37:34.212Z,1.10
2024-04-21T07:40:00.928Z,1.08
2024-04-21T07:42:27.632Z,0.85
2024-04-21T07:44:54.318Z,1.20
2024-04-21T07:47:21.057Z,0.98
2024-04-21T07:49:47.722Z,1.05
2024-04-21T07:52:14.398Z,1.00
2024-04-21T07:54:41.250Z,1.13
2024-04-21T07:57:07.919Z,1.00
2024-04-21T07:59:34.556Z,1.20
2024-04-21T08:02:01.297Z,1.13
2024-04-21T08:04:28.043Z,1.10
2024-04-21T08:06:54.745Z,0.80
2024-04-21T08:09:29.719Z,1.00
2024-04-21T08:11:58.214Z,1.27
2024-04-21T08:14:24.945Z,0.82
2024-04-21T08:16:51.582Z,0.90
2024-04-21T08:19:18.259Z,0.85
2024-04-21T08:21:44.933Z,1.00
2024-04-21T08:24:11.632Z,0.90
2024-04-21T08:26:38.286Z,0.82
2024-04-21T08:29:05.752Z,0.82
2024-04-21T08:31:32.414Z,1.00
2024-04-21T08:33:59.797Z,0.70
2024-04-21T08:36:26.595Z,0.90
2024-04-21T08:38:53.245Z,1.08
2024-04-21T08:41:22.589Z,0.90
2024-04-21T08:43:50.094Z,1.00
2024-04-21T08:46:17.452Z,1.10
2024-04-21T08:48:44.510Z,1.10
2024-04-21T08:51:11.651Z,0.80
2024-04-21T08:53:41.700Z,0.93
2024-04-21T08:56:17.306Z,1.00
2024-04-21T08:58:47.512Z,1.13
2024-04-21T09:01:14.746Z,0.70
2024-04-21T09:03:42.860Z,1.10
2024-04-21T09:06:13.144Z,0.93
2024-04-21T09:08:39.739Z,0.93
2024-04-21T09:11:06.624Z,0.95
2024-04-21T09:13:33.405Z,0.80
2024-04-21T09:16:01.281Z,0.90
2024-04-21T09:18:28.024Z,0.70
2024-04-21T09:20:54.729Z,0.90
2024-04-21T09:23:21.418Z,0.85
2024-04-21T09:25:48.084Z,0.98
2024-04-21T09:28:14.758Z,0.95
2024-04-21T09:30:41.618Z,0.80
2024-04-21T09:33:08.687Z,0.80
2024-04-21T09:35:38.539Z,0.80
2024-04-21T09:38:06.740Z,0.90
2024-04-21T09:40:35.732Z,0.80
2024-04-21T09:43:03.235Z,0.85
2024-04-21T09:45:30.352Z,0.98
2024-04-21T09:47:57.343Z,0.90
2024-04-21T09:50:25.127Z,0.80
2024-04-21T09:52:53.706Z,0.90
2024-04-21T09:55:23.702Z,0.98
2024-04-21T09:58:02.297Z,0.70
2024-04-21T10:00:32.848Z,0.63
2024-04-21T10:03:03.661Z,0.93
2024-04-21T10:05:31.564Z,0.77
2024-04-21T10:08:00.585Z,0.82
2024-04-21T10:10:31.010Z,0.70
2024-04-21T10:12:59.470Z,1.02
2024-04-21T10:15:27.496Z,0.80
2024-04-21T10:17:58.475Z,0.90
2024-04-21T10:20:30.350Z,0.80
2024-04-21T10:23:04.702Z,0.60
2024-04-21T10:25:40.537Z,0.85
2024-04-21T10:28:11.706Z,1.00
2024-04-21T10:30:39.215Z,1.00
2024-04-21T10:33:08.801Z,0.80
2024-04-21T10:35:36.869Z,0.88
2024-04-21T10:38:07.827Z,1.20
2024-04-21T10:40:38.771Z,0.80
2024-04-21T10:43:05.959Z,0.90
2024-04-21T10:45:33.675Z,1.00
2024-04-21T10:48:00.624Z,1.02
2024-04-21T10:50:27.470Z,0.75
2024-04-21T10:52:55.636Z,0.90
2024-04-21T10:55:22.505Z,1.02
2024-04-21T10:57:49.352Z,1.17
2024-04-21T11:00:16.079Z,1.02
2024-04-21T11:02:42.776Z,0.80
2024-04-21T11:05:09.477Z,0.80
2024-04-21T11:07:36.383Z,0.60
2024-04-21T11:10:03.471Z,0.70
2024-04-21T11:12:30.096Z,0.93
2024-04-21T11:15:00.644Z,0.80
2024-04-21T11:17:27.651Z,1.00
2024-04-21T11:19:55.000Z,0.80
2024-04-21T11:22:22.339Z,1.20
2024-04-21T11:24:49.208Z,0.88
2024-04-21T11:27:17.509Z,0.80
2024-04-21T11:29:47.295Z,0.80
2024-04-21T11:32:15.097Z,0.80
2024-04-21T11:34:42.007Z,0.80
2024-04-21T11:37:19.408Z,0.82
2024-04-21T11:39:46.117Z,0.80
2024-04-21T11:42:13.233Z,0.93
2024-04-21T11:44:39.975Z,0.90
2024-04-21T11:47:06.879Z,0.70
2024-04-21T11:49:33.616Z,0.70
2024-04-21T11:52:00.379Z,1.08
2024-04-21T11:54:27.080Z,0.82
2024-04-21T11:56:53.738Z,0.80
2024-04-21T11:59:20.432Z,0.90
2024-04-21T12:01:50.287Z,0.68
2024-04-21T12:04:17.738Z,0.80
2024-04-21T12:06:44.551Z,0.70
2024-04-21T12:09:11.203Z,0.80
2024-04-21T12:11:38.010Z,0.77
2024-04-21T12:14:30.817Z,0.93
2024-04-21T12:16:57.549Z,0.68
2024-04-21T12:19:24.301Z,0.70
2024-04-21T12:21:51.028Z,0.90
2024-04-21T12:24:17.717Z,0.80
2024-04-21T12:26:44.330Z,0.90
2024-04-21T12:29:11.013Z,0.60
2024-04-21T12:31:37.731Z,0.70
2024-04-21T12:34:04.498Z,0.80
2024-04-21T12:36:31.193Z,1.08
2024-04-21T12:38:57.810Z,1.00
2024-04-21T12:41:24.697Z,0.90
2024-04-21T12:43:52.056Z,1.20
2024-04-21T12:46:18.864Z,1.00
2024-04-21T12:48:45.670Z,1.00
2024-04-21T12:51:12.382Z,0.80
2024-04-21T12:53:39.066Z,0.90
2024-04-21T12:56:05.940Z,0.90
2024-04-21T12:58:32.613Z,1.00
2024-04-21T13:00:59.316Z,0.80
2024-04-21T13:03:26.082Z,0.80
2024-04-21T13:05:52.721Z,0.65
2024-04-21T13:08:19.373Z,0.82
2024-04-21T13:10:46.301Z,0.80
2024-04-21T13:13:13.129Z,0.70
2024-04-21T13:15:39.837Z,0.80
2024-04-21T13:18:06.704Z,0.90
2024-04-21T13:20:33.508Z,0.82
2024-04-21T13:23:00.138Z,0.90
2024-04-21T13:25:26.897Z,0.80
2024-04-21T13:27:53.578Z,0.80
2024-04-21T13:30:20.340Z,1.00
2024-04-21T13:35:13.635Z,1.00
2024-04-21T13:37:43.094Z,0.90
2024-04-21T13:40:11.245Z,0.90
2024-04-21T13:42:38.011Z,1.00
2024-04-21T13:45:05.101Z,0.80
2024-04-21T13:47:33.488Z,1.00
2024-04-21T13:50:01.120Z,1.00
2024-04-21T13:52:27.823Z,0.90
2024-04-21T13:54:54.616Z,0.82
2024-04-21T13:57:21.236Z,0.75
2024-04-21T13:59:47.880Z,0.80
2024-04-21T14:02:15.639Z,0.68
2024-04-21T14:04:42.342Z,0.80
2024-04-21T14:07:09.046Z,0.70
2024-04-21T14:09:35.738Z,0.80
2024-04-21T14:12:02.573Z,0.88
2024-04-21T14:14:29.244Z,0.77
2024-04-21T14:16:56.050Z,0.98
2024-04-21T14:19:22.818Z,1.00
2024-04-21T14:21:49.543Z,0.90
2024-04-21T14:24:16.324Z,0.80
2024-04-21T14:26:42.925Z,0.60
2024-04-21T14:29:09.683Z,0.80
2024-04-21T14:31:36.335Z,0.80
2024-04-21T14:34:03.043Z,0.68
2024-04-21T14:36:32.289Z,0.77
2024-04-21T14:39:00.992Z,0.70
2024-04-21T14:41:27.646Z,0.80
2024-04-21T14:43:54.296Z,0.73
2024-04-21T14:46:20.951Z,0.70
2024-04-21T14:48:47.683Z,0.90
2024-04-21T14:51:14.294Z,0.90
2024-04-21T14:53:40.948Z,0.80
2024-04-21T14:56:12.593Z,0.63
2024-04-21T14:58:39.482Z,0.82
2024-04-21T15:01:06.269Z,0.75
2024-04-21T15:03:33.062Z,1.00
2024-04-21T15:05:59.789Z,0.70
2024-04-21T15:08:26.455Z,0.80
2024-04-21T15:10:53.157Z,0.85
2024-04-21T15:13:19.942Z,0.75
2024-04-21T15:15:46.646Z,0.90
2024-04-21T15:18:13.433Z,0.70
2024-04-21T15:20:40.113Z,0.90
2024-04-21T15:23:06.755Z,1.02
2024-04-21T15:25:33.499Z,0.70
2024-04-21T15:28:00.589Z,0.80
2024-04-21T15:30:27.249Z,0.80
2024-04-21T15:32:53.942Z,1.00
2024-04-21T15:35:20.699Z,0.80
2024-04-21T15:37:47.445Z,0.95
2024-04-21T15:40:14.258Z,0.90
2024-04-21T15:42:41.255Z,0.90
2024-04-21T15:45:09.120Z,1.00
2024-04-21T15:47:36.141Z,1.00
2024-04-21T15:50:04.063Z,1.00
2024-04-21T15:52:30.907Z,0.98
2024-04-21T15:54:57.730Z,0.80
2024-04-21T15:57:24.560Z,0.80
2024-04-21T15:59:51.316Z,0.95
2024-04-21T16:02:17.949Z,0.90
2024-04-21T16:04:44.774Z,0.70
2024-04-21T16:07:11.440Z,0.90
2024-04-21T16:09:38.082Z,0.80
2024-04-21T16:12:05.077Z,0.80
2024-04-21T16:14:31.752Z,0.70
2024-04-21T16:16:58.442Z,0.80
2024-04-21T16:19:25.382Z,1.00
2024-04-21T16:21:52.189Z,0.80
2024-04-21T16:24:18.927Z,0.85
2024-04-21T16:26:45.616Z,0.85
2024-04-21T16:29:12.319Z,0.80
2024-04-21T16:31:39.033Z,0.80
2024-04-21T16:34:06.022Z,1.10
2024-04-21T16:36:33.035Z,0.70
2024-04-21T16:39:00.056Z,0.80
2024-04-21T16:41:27.043Z,0.80
2024-04-21T16:43:54.007Z,0.70
2024-04-21T16:46:24.357Z,0.80
2024-04-21T16:48:52.216Z,0.90
2024-04-21T16:51:19.083Z,0.68
2024-04-21T16:53:46.048Z,0.68
2024-04-21T16:56:16.065Z,0.70
2024-04-21T16:58:44.145Z,0.60
2024-04-21T17:01:12.313Z,0.50
2024-04-21T17:03:39.335Z,0.50
2024-04-21T17:06:08.156Z,0.65
2024-04-21T17:08:36.042Z,0.70
2024-04-21T17:11:03.574Z,0.60
2024-04-21T17:13:30.379Z,0.50
2024-04-21T17:15:57.392Z,0.57
2024-04-21T17:18:24.128Z,0.68
2024-04-21T17:20:50.837Z,0.63
2024-04-21T17:23:17.454Z,0.80
2024-04-21T17:25:44.210Z,0.70
2024-04-21T17:28:10.875Z,0.60
2024-04-21T17:30:37.544Z,0.60
2024-04-21T17:33:04.518Z,0.70
2024-04-21T17:35:31.275Z,0.60
2024-04-21T17:37:57.900Z,0.60
2024-04-21T17:40:24.705Z,0.90
2024-04-21T17:42:53.140Z,0.65
2024-04-21T17:45:21.642Z,0.77
2024-04-21T17:47:48.376Z,0.63
2024-04-21T17:50:15.081Z,0.85
2024-04-21T17:52:41.866Z,0.63
2024-04-21T17:55:08.562Z,1.10
2024-04-21T17:57:35.306Z,0.95
2024-04-21T18:00:02.056Z,0.80
2024-04-21T18:02:28.715Z,1.23
2024-04-21T18:04:55.443Z,1.00
2024-04-21T18:07:22.146Z,1.15
2024-04-21T18:09:48.920Z,1.20
2024-04-21T18:12:15.652Z,1.17
2024-04-21T18:14:42.291Z,1.00
2024-04-21T18:17:17.655Z,1.10
2024-04-21T18:19:48.666Z,1.00
2024-04-21T18:22:16.351Z,1.17
2024-04-21T18:24:43.117Z,1.00
2024-04-21T18:27:10.029Z,0.90
2024-04-21T18:29:36.851Z,1.27
2024-04-21T18:32:03.772Z,1.17
2024-04-21T18:34:30.550Z,1.40
2024-04-21T18:37:00.477Z,1.10
2024-04-21T18:39:27.907Z,0.95
2024-04-21T18:41:54.613Z,0.90
2024-04-21T18:44:21.294Z,0.82
2024-04-21T18:46:47.986Z,1.00
2024-04-21T18:49:14.803Z,1.00
2024-04-21T18:51:41.511Z,1.02
2024-04-21T18:54:08.907Z,1.15
2024-04-21T18:56:35.580Z,0.80
2024-04-21T18:59:02.442Z,0.90
2024-04-21T19:01:29.321Z,1.00
2024-04-21T19:03:55.994Z,1.08
2024-04-21T19:06:22.755Z,1.10
2024-04-21T19:08:49.416Z,1.10
2024-04-21T19:11:16.346Z,0.80
2024-04-21T19:13:44.020Z,0.93
2024-04-21T19:16:12.970Z,1.10
2024-04-21T19:18:40.400Z,0.82
2024-04-21T19:21:07.969Z,1.10
2024-04-21T19:23:35.340Z,0.93
2024-04-21T19:26:02.287Z,1.00
2024-04-21T19:28:29.150Z,1.25
2024-04-21T19:30:55.863Z,1.17
2024-04-21T19:33:22.503Z,1.00
2024-04-21T19:35:49.447Z,1.08
2024-04-21T19:38:16.146Z,1.30
2024-04-21T19:40:44.303Z,1.00
2024-04-21T19:43:12.239Z,1.10
2024-04-21T19:45:38.885Z,1.00
2024-04-21T19:48:06.023Z,1.00
2024-04-21T19:50:32.754Z,1.23
2024-04-21T19:52:59.501Z,1.10
2024-04-21T19:55:26.215Z,1.05
2024-04-21T19:57:52.929Z,1.20
2024-04-21T20:00:19.771Z,1.20
2024-04-21T20:02:46.472Z,1.65
2024-04-21T20:05:13.174Z,1.10
2024-04-21T20:07:39.923Z,1.23
2024-04-21T20:10:06.718Z,1.40
2024-04-21T20:12:33.427Z,1.23
2024-04-21T20:15:00.134Z,1.10
2024-04-21T20:17:26.887Z,1.30
2024-04-21T20:19:53.705Z,1.10
2024-04-21T20:22:20.456Z,1.30
2024-04-21T20:24:47.129Z,1.27
2024-04-21T20:27:13.784Z,1.20
2024-04-21T20:29:40.425Z,1.10
2024-04-21T20:32:07.141Z,1.10
2024-04-21T20:34:33.950Z,1.00
2024-04-21T20:37:00.610Z,1.20
2024-04-21T20:39:27.261Z,1.67
2024-04-21T20:41:53.933Z,1.30
2024-04-21T20:44:20.627Z,1.52
2024-04-21T20:46:47.312Z,1.15
2024-04-21T20:49:13.961Z,1.20
2024-04-21T20:51:40.630Z,1.10
2024-04-21T20:54:07.267Z,1.27
2024-04-21T20:56:33.948Z,1.30
2024-04-21T20:59:00.595Z,1.33
2024-04-21T21:01:27.418Z,1.10
2024-04-21T21:03:54.203Z,1.20
2024-04-21T21:06:21.179Z,1.23
2024-04-21T21:08:48.447Z,1.40
2024-04-21T21:11:15.176Z,1.23
2024-04-21T21:13:41.960Z,1.00
2024-04-21T21:16:08.658Z,1.15
2024-04-21T21:18:35.411Z,1.35
2024-04-21T21:21:02.181Z,1.00
2024-04-21T21:23:28.878Z,1.25
2024-04-21T21:25:55.521Z,1.50
2024-04-21T21:28:23.996Z,1.38
2024-04-21T21:30:50.998Z,1.23
2024-04-21T21:33:19.237Z,1.00
2024-04-21T21:35:58.729Z,1.05
2024-04-21T21:38:26.197Z,1.30
2024-04-21T21:40:53.371Z,1.30
2024-04-21T21:43:20.224Z,1.15
2024-04-21T21:45:47.041Z,1.33
2024-04-21T21:48:13.763Z,1.20
2024-04-21T21:50:40.545Z,1.30
2024-04-21T21:53:07.144Z,1.08
2024-04-21T21:55:33.976Z,0.93
2024-04-21T21:58:00.732Z,1.27
2024-04-21T22:00:28.228Z,1.10
2024-04-21T22:02:55.189Z,1.15
2024-04-21T22:05:21.861Z,1.15
2024-04-21T22:07:48.602Z,1.10
2024-04-21T22:10:15.525Z,1.10
2024-04-21T22:12:42.266Z,1.10
2024-04-21T22:15:08.936Z,1.13
2024-04-21T22:17:36.364Z,1.10
2024-04-21T22:20:03.096Z,1.10
2024-04-21T22:22:29.801Z,1.15
2024-04-21T22:24:56.447Z,1.02
2024-04-21T22:27:23.107Z,1.20
2024-04-21T22:29:49.951Z,1.10
2024-04-21T22:32:17.630Z,1.10
2024-04-21T22:34:44.725Z,1.23
2024-04-21T22:37:11.429Z,1.23
2024-04-21T22:39:38.633Z,1.30
2024-04-21T22:42:07.248Z,1.05
2024-04-21T22:44:33.891Z,1.10
2024-04-21T22:47:00.928Z,1.13
2024-04-21T22:49:27.728Z,1.10
2024-04-21T22:51:54.415Z,1.15
2024-04-21T22:54:21.277Z,1.17
2024-04-21T22:56:47.973Z,1.02
2024-04-21T22:59:14.614Z,1.20
2024-04-21T23:01:41.327Z,1.10
2024-04-21T23:04:08.027Z,1.17
2024-04-21T23:06:34.659Z,0.93
2024-04-21T23:09:01.319Z,1.10
2024-04-21T23:11:28.040Z,1.10
2024-04-21T23:13:54.672Z,1.10
2024-04-21T23:16:21.442Z,1.00
2024-04-21T23:18:48.073Z,1.17
2024-04-21T23:21:14.761Z,1.00
2024-04-21T23:23:41.440Z,1.02
2024-04-21T23:26:08.091Z,1.10
2024-04-21T23:28:34.933Z,0.95
2024-04-21T23:31:01.653Z,1.00
2024-04-21T23:33:28.374Z,1.00
2024-04-21T23:35:55.079Z,1.15
2024-04-21T23:38:21.834Z,1.00
2024-04-21T23:40:48.480Z,0.90
2024-04-21T23:43:15.245Z,1.00
2024-04-21T23:45:42.280Z,1.00
2024-04-21T23:48:09.018Z,1.00
2024-04-21T23:50:35.754Z,0.90
2024-04-21T23:53:02.468Z,1.00
2024-04-21T23:55:29.141Z,1.00
2024-04-21T23:57:55.785Z,1.20
